Traun, Austria
Current Conditions -  °F | °C
As of 7:50 PM on Saturday 20 Dec 2014 (Local Time) from LOWL Reporting Station
Broken Clouds Broken Clouds  
Wind Chill: 35°   Ceiling: 7000
Heat Index: 43°   Visibility: 6mi
Dew Point: 30°   Wind: 16mph
Humidity: 61%   Direction: 260°W
Pressure: 30.15"   Gusts: NA
Location:  48.23°N, 14.24°E
Report Text: LOWL 201750Z 26014KT 9999 FEW018 SCT048 BKN070 06/M01 Q1021 TEMPO SHRA
Loading
Personal Weather Stations






























Interactive Weather Map New forecast layout! Learn more

10-Day Weather Forecast

Advertisements
Track Severe Weather on mobile